Flight Track Log - Related Links

Times and Time Zones

All times are in EST time to prevent confusion due to time zone crossing. See the EJA749 flight status page for this flight to view local times or setup timezone preferences in your user account.

Time Position Orientation Groundspeed Altitude Reporting Facility
EST Latitude Longitude Course Direction KTS MPH feet Rate Location/Type
Wed 05:32:57 PM 41.8667 -88.2500 337° Northwest 178 205 2,400  Level Chicago TRACON
Wed 05:33:57 PM 41.8167 -88.2333 166° South 182 209 3,000 300 Climbing Chicago TRACON
Wed 05:34:57 PM 41.7667 -88.2000 154° Southeast 201 231 3,000  Level Chicago TRACON
Wed 05:35:58 PM 41.7333 -88.1667 143° Southeast 184 212 3,000  Level Chicago TRACON
Wed 05:36:58 PM 41.6833 -88.1500 166° South 179 206 3,000  Level Chicago TRACON
Wed 05:37:58 PM 41.6333 -88.1333 166° South 186 214 3,000  Level Chicago TRACON
Wed 05:38:00 PM 41.7992 -87.8061 337° Northwest  Level Estimated
Wed 05:38:58 PM 41.6333 -88.0500 90° East 227 261 3,000  Level Chicago TRACON
Wed 05:39:58 PM 41.6167 -87.9667 105° East 227 261 3,000  Level Chicago TRACON
Wed 05:40:58 PM 41.6000 -87.8833 105° East 235 270 3,000  Level Chicago TRACON
Wed 05:41:58 PM 41.6000 -87.8000 90° East 239 275 3,000  Level Chicago TRACON
Wed 05:42:29 PM 41.6056 -87.7672 77° East 241 277 3,000  Level Chicago Center
Wed 05:43:31 PM 41.6164 -87.6758 81° East 222 255 3,000  Level Chicago Center
Wed 05:44:33 PM 41.6197 -87.6017 87° East 208 239 3,000  Level Chicago Center
Wed 05:45:36 PM 41.6506 -87.5611 44° Northeast 205 236 3,000  Level Chicago Center
Wed 05:46:38 PM 41.6800 -87.6019 314° West 169 194 3,000 -97 Level Chicago Center
Wed 05:47:40 PM 41.7094 -87.6456 312° West 161 185 2,800 -532 Descending Chicago Center
Wed 05:48:42 PM 41.7472 -87.6919 318° Northwest 157 181 1,900 -387 Descending Chicago Center
Wed 05:49:44 PM 41.7939 -87.6636 24° Northeast 173 199 2,000 -97 Climbing Chicago Center
Wed 05:50:46 PM 41.8261 -87.6931 326° Northwest 167 192 1,700 -484 Descending Chicago Center
Wed 05:51:48 PM 41.8064 -87.7258 231° Southwest 134 154 1,000 -677 Descending Chicago Center
Wed 05:53:00 PM 41.7833 -87.7500 270° West  Level FlightAware Approximate

Login

Don't have an account? Register now (free) for customized features, flight alerts, and more!